sensor_id;sensor_type;location;lat;lon;timestamp;P1;durP1;ratioP1;P2;durP2;ratioP2
64188;SDS011;50493;50.970;10.082;2022-08-07T00:00:20;1.35;;;1.20;;
64188;SDS011;50493;50.970;10.082;2022-08-07T00:02:45;1.77;;;1.20;;
64188;SDS011;50493;50.970;10.082;2022-08-07T00:05:12;1.60;;;1.20;;
64188;SDS011;50493;50.970;10.082;2022-08-07T00:07:38;2.65;;;1.38;;
64188;SDS011;50493;50.970;10.082;2022-08-07T00:10:04;1.50;;;1.10;;
64188;SDS011;50493;50.970;10.082;2022-08-07T00:12:30;1.17;;;1.08;;
64188;SDS011;50493;50.970;10.082;2022-08-07T00:14:55;1.50;;;1.17;;
64188;SDS011;50493;50.970;10.082;2022-08-07T00:17:21;1.77;;;1.20;;
64188;SDS011;50493;50.970;10.082;2022-08-07T00:19:46;1.48;;;1.30;;
64188;SDS011;50493;50.970;10.082;2022-08-07T00:22:13;1.77;;;1.30;;
64188;SDS011;50493;50.970;10.082;2022-08-07T00:24:38;1.20;;;1.00;;
64188;SDS011;50493;50.970;10.082;2022-08-07T00:27:04;2.20;;;1.20;;
64188;SDS011;50493;50.970;10.082;2022-08-07T00:29:29;1.55;;;1.27;;
64188;SDS011;50493;50.970;10.082;2022-08-07T00:31:55;1.35;;;1.15;;
64188;SDS011;50493;50.970;10.082;2022-08-07T00:34:23;1.33;;;1.20;;
64188;SDS011;50493;50.970;10.082;2022-08-07T00:36:49;1.48;;;1.20;;
64188;SDS011;50493;50.970;10.082;2022-08-07T00:39:16;1.40;;;1.27;;
64188;SDS011;50493;50.970;10.082;2022-08-07T00:41:47;2.33;;;1.23;;
64188;SDS011;50493;50.970;10.082;2022-08-07T00:44:14;1.58;;;1.13;;
64188;SDS011;50493;50.970;10.082;2022-08-07T00:46:39;1.73;;;1.10;;
64188;SDS011;50493;50.970;10.082;2022-08-07T00:49:05;1.70;;;1.20;;
64188;SDS011;50493;50.970;10.082;2022-08-07T00:51:30;2.20;;;1.40;;
64188;SDS011;50493;50.970;10.082;2022-08-07T00:53:56;1.85;;;1.15;;
64188;SDS011;50493;50.970;10.082;2022-08-07T00:56:23;1.45;;;1.08;;
64188;SDS011;50493;50.970;10.082;2022-08-07T00:58:48;2.15;;;1.10;;
64188;SDS011;50493;50.970;10.082;2022-08-07T01:01:14;1.10;;;1.00;;
64188;SDS011;50493;50.970;10.082;2022-08-07T01:03:40;2.08;;;1.10;;
64188;SDS011;50493;50.970;10.082;2022-08-07T01:06:05;1.65;;;1.27;;
64188;SDS011;50493;50.970;10.082;2022-08-07T01:08:32;1.38;;;1.00;;
64188;SDS011;50493;50.970;10.082;2022-08-07T01:10:57;1.40;;;1.00;;
64188;SDS011;50493;50.970;10.082;2022-08-07T01:13:24;1.08;;;0.98;;
64188;SDS011;50493;50.970;10.082;2022-08-07T01:15:49;1.20;;;1.00;;
64188;SDS011;50493;50.970;10.082;2022-08-07T01:18:15;2.25;;;1.27;;
64188;SDS011;50493;50.970;10.082;2022-08-07T01:20:44;1.67;;;1.08;;
64188;SDS011;50493;50.970;10.082;2022-08-07T01:23:14;1.20;;;1.10;;
64188;SDS011;50493;50.970;10.082;2022-08-07T01:25:40;1.60;;;1.15;;
64188;SDS011;50493;50.970;10.082;2022-08-07T01:28:06;1.20;;;1.05;;
64188;SDS011;50493;50.970;10.082;2022-08-07T01:30:32;1.15;;;1.05;;
64188;SDS011;50493;50.970;10.082;2022-08-07T01:33:00;1.67;;;1.20;;
64188;SDS011;50493;50.970;10.082;2022-08-07T01:35:26;1.30;;;1.20;;
64188;SDS011;50493;50.970;10.082;2022-08-07T01:37:51;1.33;;;1.10;;
64188;SDS011;50493;50.970;10.082;2022-08-07T01:40:19;1.30;;;1.20;;
64188;SDS011;50493;50.970;10.082;2022-08-07T01:42:45;1.60;;;1.30;;
64188;SDS011;50493;50.970;10.082;2022-08-07T01:45:11;1.10;;;1.00;;
64188;SDS011;50493;50.970;10.082;2022-08-07T01:47:36;1.30;;;1.13;;
64188;SDS011;50493;50.970;10.082;2022-08-07T01:50:02;1.20;;;1.10;;
64188;SDS011;50493;50.970;10.082;2022-08-07T01:52:28;1.70;;;1.10;;
64188;SDS011;50493;50.970;10.082;2022-08-07T01:54:56;1.33;;;1.20;;
64188;SDS011;50493;50.970;10.082;2022-08-07T01:57:26;1.85;;;1.10;;
64188;SDS011;50493;50.970;10.082;2022-08-07T01:59:54;1.38;;;1.10;;
64188;SDS011;50493;50.970;10.082;2022-08-07T02:02:25;2.72;;;1.40;;
64188;SDS011;50493;50.970;10.082;2022-08-07T02:04:53;1.88;;;1.20;;
64188;SDS011;50493;50.970;10.082;2022-08-07T02:07:22;1.17;;;1.08;;
64188;SDS011;50493;50.970;10.082;2022-08-07T02:09:50;4.05;;;1.40;;
64188;SDS011;50493;50.970;10.082;2022-08-07T02:12:17;1.58;;;1.20;;
64188;SDS011;50493;50.970;10.082;2022-08-07T02:14:46;1.92;;;1.20;;
64188;SDS011;50493;50.970;10.082;2022-08-07T02:17:14;1.70;;;1.10;;
64188;SDS011;50493;50.970;10.082;2022-08-07T02:19:41;1.50;;;1.00;;
64188;SDS011;50493;50.970;10.082;2022-08-07T02:22:08;1.20;;;1.10;;
64188;SDS011;50493;50.970;10.082;2022-08-07T02:24:36;1.60;;;1.40;;
64188;SDS011;50493;50.970;10.082;2022-08-07T02:27:02;1.30;;;1.10;;
64188;SDS011;50493;50.970;10.082;2022-08-07T02:29:29;1.35;;;1.17;;
64188;SDS011;50493;50.970;10.082;2022-08-07T02:31:57;1.27;;;1.10;;
64188;SDS011;50493;50.970;10.082;2022-08-07T02:34:24;2.10;;;1.30;;
64188;SDS011;50493;50.970;10.082;2022-08-07T02:36:49;1.42;;;1.30;;
64188;SDS011;50493;50.970;10.082;2022-08-07T02:39:15;2.20;;;1.10;;
64188;SDS011;50493;50.970;10.082;2022-08-07T02:41:42;0.90;;;0.90;;
64188;SDS011;50493;50.970;10.082;2022-08-07T02:44:08;1.30;;;1.20;;
64188;SDS011;50493;50.970;10.082;2022-08-07T02:46:35;1.40;;;1.30;;
64188;SDS011;50493;50.970;10.082;2022-08-07T02:49:03;1.48;;;1.00;;
64188;SDS011;50493;50.970;10.082;2022-08-07T02:51:30;1.48;;;1.33;;
64188;SDS011;50493;50.970;10.082;2022-08-07T02:53:57;1.48;;;1.30;;
64188;SDS011;50493;50.970;10.082;2022-08-07T02:56:25;1.40;;;1.30;;
64188;SDS011;50493;50.970;10.082;2022-08-07T02:58:54;2.20;;;1.20;;
64188;SDS011;50493;50.970;10.082;2022-08-07T03:01:23;1.92;;;1.50;;
64188;SDS011;50493;50.970;10.082;2022-08-07T03:03:51;1.48;;;1.27;;
64188;SDS011;50493;50.970;10.082;2022-08-07T03:06:18;1.70;;;1.23;;
64188;SDS011;50493;50.970;10.082;2022-08-07T03:08:45;1.20;;;1.10;;
64188;SDS011;50493;50.970;10.082;2022-08-07T03:11:11;1.13;;;1.00;;
64188;SDS011;50493;50.970;10.082;2022-08-07T03:13:37;1.30;;;1.10;;
64188;SDS011;50493;50.970;10.082;2022-08-07T03:16:03;2.33;;;1.20;;
64188;SDS011;50493;50.970;10.082;2022-08-07T03:18:28;1.98;;;1.00;;
64188;SDS011;50493;50.970;10.082;2022-08-07T03:20:54;1.40;;;1.30;;
64188;SDS011;50493;50.970;10.082;2022-08-07T03:23:21;1.90;;;1.35;;
64188;SDS011;50493;50.970;10.082;2022-08-07T03:25:48;2.00;;;1.45;;
64188;SDS011;50493;50.970;10.082;2022-08-07T03:28:15;1.73;;;1.30;;
64188;SDS011;50493;50.970;10.082;2022-08-07T03:30:41;1.20;;;1.10;;
64188;SDS011;50493;50.970;10.082;2022-08-07T03:33:08;1.50;;;1.40;;
64188;SDS011;50493;50.970;10.082;2022-08-07T03:35:34;2.08;;;1.30;;
64188;SDS011;50493;50.970;10.082;2022-08-07T03:38:02;2.88;;;1.98;;
64188;SDS011;50493;50.970;10.082;2022-08-07T03:40:31;1.98;;;1.40;;
64188;SDS011;50493;50.970;10.082;2022-08-07T03:42:57;1.50;;;1.38;;
64188;SDS011;50493;50.970;10.082;2022-08-07T03:45:24;2.00;;;1.20;;
64188;SDS011;50493;50.970;10.082;2022-08-07T03:47:51;1.67;;;1.40;;
64188;SDS011;50493;50.970;10.082;2022-08-07T03:50:17;2.13;;;1.30;;
64188;SDS011;50493;50.970;10.082;2022-08-07T03:52:47;1.55;;;1.23;;
64188;SDS011;50493;50.970;10.082;2022-08-07T03:55:13;1.65;;;1.30;;
64188;SDS011;50493;50.970;10.082;2022-08-07T03:57:40;2.00;;;1.10;;
64188;SDS011;50493;50.970;10.082;2022-08-07T04:00:07;1.58;;;1.30;;
64188;SDS011;50493;50.970;10.082;2022-08-07T04:02:34;1.50;;;1.40;;
64188;SDS011;50493;50.970;10.082;2022-08-07T04:05:00;1.48;;;1.20;;
64188;SDS011;50493;50.970;10.082;2022-08-07T04:07:25;2.08;;;1.30;;
64188;SDS011;50493;50.970;10.082;2022-08-07T04:09:51;1.65;;;1.48;;
64188;SDS011;50493;50.970;10.082;2022-08-07T04:12:17;1.30;;;1.20;;
64188;SDS011;50493;50.970;10.082;2022-08-07T04:14:44;1.60;;;1.27;;
64188;SDS011;50493;50.970;10.082;2022-08-07T04:17:10;1.77;;;1.30;;
64188;SDS011;50493;50.970;10.082;2022-08-07T04:19:38;2.10;;;1.20;;
64188;SDS011;50493;50.970;10.082;2022-08-07T04:22:04;1.40;;;1.30;;
64188;SDS011;50493;50.970;10.082;2022-08-07T04:24:30;1.65;;;1.40;;
64188;SDS011;50493;50.970;10.082;2022-08-07T04:26:55;1.35;;;1.25;;
64188;SDS011;50493;50.970;10.082;2022-08-07T04:29:22;2.03;;;1.30;;
64188;SDS011;50493;50.970;10.082;2022-08-07T04:31:49;1.40;;;1.30;;
64188;SDS011;50493;50.970;10.082;2022-08-07T04:34:15;1.45;;;1.35;;
64188;SDS011;50493;50.970;10.082;2022-08-07T04:36:41;1.17;;;1.08;;
64188;SDS011;50493;50.970;10.082;2022-08-07T04:39:07;1.20;;;1.10;;
64188;SDS011;50493;50.970;10.082;2022-08-07T04:41:33;1.48;;;1.30;;
64188;SDS011;50493;50.970;10.082;2022-08-07T04:43:59;1.50;;;1.17;;
64188;SDS011;50493;50.970;10.082;2022-08-07T04:46:28;1.77;;;1.30;;
64188;SDS011;50493;50.970;10.082;2022-08-07T04:49:00;1.20;;;1.10;;
64188;SDS011;50493;50.970;10.082;2022-08-07T04:51:34;1.20;;;1.05;;
64188;SDS011;50493;50.970;10.082;2022-08-07T04:54:10;1.35;;;1.25;;
64188;SDS011;50493;50.970;10.082;2022-08-07T04:56:43;1.13;;;1.02;;
64188;SDS011;50493;50.970;10.082;2022-08-07T04:59:14;1.10;;;1.00;;
64188;SDS011;50493;50.970;10.082;2022-08-07T05:01:46;1.77;;;1.17;;
64188;SDS011;50493;50.970;10.082;2022-08-07T05:04:21;1.27;;;0.98;;
64188;SDS011;50493;50.970;10.082;2022-08-07T05:06:58;1.20;;;1.10;;
64188;SDS011;50493;50.970;10.082;2022-08-07T05:09:31;1.20;;;1.10;;
64188;SDS011;50493;50.970;10.082;2022-08-07T05:12:03;1.90;;;0.90;;
64188;SDS011;50493;50.970;10.082;2022-08-07T05:14:32;1.75;;;1.00;;
64188;SDS011;50493;50.970;10.082;2022-08-07T05:17:01;1.55;;;1.10;;
64188;SDS011;50493;50.970;10.082;2022-08-07T05:19:33;1.42;;;1.00;;
64188;SDS011;50493;50.970;10.082;2022-08-07T05:22:02;1.30;;;0.98;;
64188;SDS011;50493;50.970;10.082;2022-08-07T05:24:31;1.23;;;1.13;;
64188;SDS011;50493;50.970;10.082;2022-08-07T05:26:58;0.90;;;0.90;;
64188;SDS011;50493;50.970;10.082;2022-08-07T05:29:26;1.10;;;1.00;;
64188;SDS011;50493;50.970;10.082;2022-08-07T05:31:52;1.58;;;1.30;;
64188;SDS011;50493;50.970;10.082;2022-08-07T05:34:18;1.00;;;0.90;;
64188;SDS011;50493;50.970;10.082;2022-08-07T05:36:47;2.33;;;1.48;;
64188;SDS011;50493;50.970;10.082;2022-08-07T05:39:15;1.10;;;1.00;;
64188;SDS011;50493;50.970;10.082;2022-08-07T05:41:42;3.35;;;1.38;;
64188;SDS011;50493;50.970;10.082;2022-08-07T05:44:11;1.20;;;1.10;;
64188;SDS011;50493;50.970;10.082;2022-08-07T05:46:37;1.00;;;0.90;;
64188;SDS011;50493;50.970;10.082;2022-08-07T05:49:04;1.10;;;1.00;;
64188;SDS011;50493;50.970;10.082;2022-08-07T05:51:32;0.98;;;0.98;;
64188;SDS011;50493;50.970;10.082;2022-08-07T05:53:59;1.27;;;1.17;;
64188;SDS011;50493;50.970;10.082;2022-08-07T05:56:24;2.47;;;1.00;;
64188;SDS011;50493;50.970;10.082;2022-08-07T05:58:52;0.90;;;0.90;;
64188;SDS011;50493;50.970;10.082;2022-08-07T06:01:17;1.85;;;1.00;;
64188;SDS011;50493;50.970;10.082;2022-08-07T06:03:46;1.33;;;1.00;;
64188;SDS011;50493;50.970;10.082;2022-08-07T06:06:13;1.42;;;1.13;;
64188;SDS011;50493;50.970;10.082;2022-08-07T06:08:39;1.42;;;0.90;;
64188;SDS011;50493;50.970;10.082;2022-08-07T06:11:07;1.13;;;0.98;;
64188;SDS011;50493;50.970;10.082;2022-08-07T06:13:34;1.85;;;1.10;;
64188;SDS011;50493;50.970;10.082;2022-08-07T06:15:59;1.00;;;0.90;;
64188;SDS011;50493;50.970;10.082;2022-08-07T06:18:27;0.93;;;0.90;;
64188;SDS011;50493;50.970;10.082;2022-08-07T06:20:54;1.35;;;1.00;;
64188;SDS011;50493;50.970;10.082;2022-08-07T06:23:19;1.50;;;1.10;;
64188;SDS011;50493;50.970;10.082;2022-08-07T06:25:45;1.55;;;1.00;;
64188;SDS011;50493;50.970;10.082;2022-08-07T06:28:12;1.13;;;1.02;;
64188;SDS011;50493;50.970;10.082;2022-08-07T06:30:37;2.25;;;1.25;;
64188;SDS011;50493;50.970;10.082;2022-08-07T06:33:04;1.58;;;1.10;;
64188;SDS011;50493;50.970;10.082;2022-08-07T06:35:31;1.55;;;0.80;;
64188;SDS011;50493;50.970;10.082;2022-08-07T06:37:59;1.10;;;1.00;;
64188;SDS011;50493;50.970;10.082;2022-08-07T06:40:24;2.17;;;1.10;;
64188;SDS011;50493;50.970;10.082;2022-08-07T06:42:52;0.98;;;0.90;;
64188;SDS011;50493;50.970;10.082;2022-08-07T06:45:20;1.08;;;0.98;;
64188;SDS011;50493;50.970;10.082;2022-08-07T06:47:47;1.42;;;0.98;;
64188;SDS011;50493;50.970;10.082;2022-08-07T06:50:13;0.80;;;0.80;;
64188;SDS011;50493;50.970;10.082;2022-08-07T06:52:40;2.22;;;0.98;;
64188;SDS011;50493;50.970;10.082;2022-08-07T06:55:08;1.48;;;1.00;;
64188;SDS011;50493;50.970;10.082;2022-08-07T06:57:37;1.25;;;0.95;;
64188;SDS011;50493;50.970;10.082;2022-08-07T07:00:04;1.25;;;0.95;;
64188;SDS011;50493;50.970;10.082;2022-08-07T07:02:31;1.55;;;1.00;;
64188;SDS011;50493;50.970;10.082;2022-08-07T07:05:00;1.45;;;0.70;;
64188;SDS011;50493;50.970;10.082;2022-08-07T07:07:26;1.30;;;0.90;;
64188;SDS011;50493;50.970;10.082;2022-08-07T07:09:52;3.70;;;1.10;;
64188;SDS011;50493;50.970;10.082;2022-08-07T07:12:21;1.88;;;1.00;;
64188;SDS011;50493;50.970;10.082;2022-08-07T07:14:51;1.17;;;0.93;;
64188;SDS011;50493;50.970;10.082;2022-08-07T07:17:23;0.73;;;0.73;;
64188;SDS011;50493;50.970;10.082;2022-08-07T07:19:54;1.48;;;0.88;;
64188;SDS011;50493;50.970;10.082;2022-08-07T07:22:23;1.88;;;0.90;;
64188;SDS011;50493;50.970;10.082;2022-08-07T07:24:50;0.95;;;0.80;;
64188;SDS011;50493;50.970;10.082;2022-08-07T07:27:16;2.97;;;1.10;;
64188;SDS011;50493;50.970;10.082;2022-08-07T07:29:46;2.88;;;0.93;;
64188;SDS011;50493;50.970;10.082;2022-08-07T07:32:15;1.30;;;0.95;;
64188;SDS011;50493;50.970;10.082;2022-08-07T07:34:43;1.00;;;0.90;;
64188;SDS011;50493;50.970;10.082;2022-08-07T07:37:11;1.83;;;1.00;;
64188;SDS011;50493;50.970;10.082;2022-08-07T07:39:38;1.10;;;0.90;;
64188;SDS011;50493;50.970;10.082;2022-08-07T07:42:05;1.00;;;0.80;;
64188;SDS011;50493;50.970;10.082;2022-08-07T07:44:33;1.60;;;1.05;;
64188;SDS011;50493;50.970;10.082;2022-08-07T07:47:02;1.00;;;0.90;;
64188;SDS011;50493;50.970;10.082;2022-08-07T07:49:30;1.00;;;0.80;;
64188;SDS011;50493;50.970;10.082;2022-08-07T07:51:57;1.83;;;0.90;;
64188;SDS011;50493;50.970;10.082;2022-08-07T07:54:26;1.00;;;0.90;;
64188;SDS011;50493;50.970;10.082;2022-08-07T07:56:53;1.35;;;0.90;;
64188;SDS011;50493;50.970;10.082;2022-08-07T07:59:20;1.90;;;1.00;;
64188;SDS011;50493;50.970;10.082;2022-08-07T08:01:47;2.70;;;1.17;;
64188;SDS011;50493;50.970;10.082;2022-08-07T08:04:15;1.42;;;1.00;;
64188;SDS011;50493;50.970;10.082;2022-08-07T08:06:43;2.25;;;1.00;;
64188;SDS011;50493;50.970;10.082;2022-08-07T08:09:10;2.05;;;1.00;;
64188;SDS011;50493;50.970;10.082;2022-08-07T08:11:40;1.55;;;0.90;;
64188;SDS011;50493;50.970;10.082;2022-08-07T08:14:07;1.58;;;0.90;;
64188;SDS011;50493;50.970;10.082;2022-08-07T08:16:33;2.17;;;0.90;;
64188;SDS011;50493;50.970;10.082;2022-08-07T08:19:03;1.63;;;0.90;;
64188;SDS011;50493;50.970;10.082;2022-08-07T08:21:30;1.10;;;1.00;;
64188;SDS011;50493;50.970;10.082;2022-08-07T08:24:15;0.95;;;0.70;;
64188;SDS011;50493;50.970;10.082;2022-08-07T08:27:02;1.67;;;0.80;;
64188;SDS011;50493;50.970;10.082;2022-08-07T08:29:32;1.98;;;0.70;;
64188;SDS011;50493;50.970;10.082;2022-08-07T08:32:04;1.92;;;0.90;;
64188;SDS011;50493;50.970;10.082;2022-08-07T08:34:30;2.00;;;0.95;;
64188;SDS011;50493;50.970;10.082;2022-08-07T08:36:58;1.15;;;0.80;;
64188;SDS011;50493;50.970;10.082;2022-08-07T08:39:26;1.38;;;0.80;;
64188;SDS011;50493;50.970;10.082;2022-08-07T08:41:55;1.40;;;0.85;;
64188;SDS011;50493;50.970;10.082;2022-08-07T08:44:29;2.17;;;0.90;;
64188;SDS011;50493;50.970;10.082;2022-08-07T08:47:04;1.45;;;0.88;;
64188;SDS011;50493;50.970;10.082;2022-08-07T08:49:32;0.65;;;0.60;;
64188;SDS011;50493;50.970;10.082;2022-08-07T08:52:05;0.80;;;0.70;;
64188;SDS011;50493;50.970;10.082;2022-08-07T08:54:37;3.30;;;0.82;;
64188;SDS011;50493;50.970;10.082;2022-08-07T08:57:06;1.52;;;0.70;;
64188;SDS011;50493;50.970;10.082;2022-08-07T08:59:40;0.98;;;0.68;;
64188;SDS011;50493;50.970;10.082;2022-08-07T09:02:16;0.88;;;0.70;;
64188;SDS011;50493;50.970;10.082;2022-08-07T09:04:51;2.08;;;0.70;;
64188;SDS011;50493;50.970;10.082;2022-08-07T09:07:23;1.73;;;0.73;;
64188;SDS011;50493;50.970;10.082;2022-08-07T09:09:57;2.08;;;0.70;;
64188;SDS011;50493;50.970;10.082;2022-08-07T09:12:33;2.45;;;0.80;;
64188;SDS011;50493;50.970;10.082;2022-08-07T09:15:14;2.05;;;0.70;;
64188;SDS011;50493;50.970;10.082;2022-08-07T09:17:52;1.42;;;0.80;;
64188;SDS011;50493;50.970;10.082;2022-08-07T09:20:32;3.72;;;1.00;;
64188;SDS011;50493;50.970;10.082;2022-08-07T09:23:09;0.90;;;0.70;;
64188;SDS011;50493;50.970;10.082;2022-08-07T09:25:49;1.60;;;0.82;;
64188;SDS011;50493;50.970;10.082;2022-08-07T09:28:26;1.58;;;0.80;;
64188;SDS011;50493;50.970;10.082;2022-08-07T09:30:57;1.38;;;0.70;;
64188;SDS011;50493;50.970;10.082;2022-08-07T09:33:32;0.80;;;0.75;;
64188;SDS011;50493;50.970;10.082;2022-08-07T09:36:08;0.68;;;0.60;;
64188;SDS011;50493;50.970;10.082;2022-08-07T09:38:41;0.73;;;0.70;;
64188;SDS011;50493;50.970;10.082;2022-08-07T09:41:13;0.88;;;0.73;;
64188;SDS011;50493;50.970;10.082;2022-08-07T09:43:52;1.20;;;0.73;;
64188;SDS011;50493;50.970;10.082;2022-08-07T09:46:31;1.20;;;0.75;;
64188;SDS011;50493;50.970;10.082;2022-08-07T09:49:20;1.67;;;0.80;;
64188;SDS011;50493;50.970;10.082;2022-08-07T09:51:59;1.17;;;0.90;;
64188;SDS011;50493;50.970;10.082;2022-08-07T09:54:33;0.85;;;0.80;;
64188;SDS011;50493;50.970;10.082;2022-08-07T10:00:06;1.05;;;0.70;;
64188;SDS011;50493;50.970;10.082;2022-08-07T10:02:51;1.13;;;0.60;;
64188;SDS011;50493;50.970;10.082;2022-08-07T10:05:34;1.35;;;0.80;;
64188;SDS011;50493;50.970;10.082;2022-08-07T10:08:24;2.10;;;0.82;;
64188;SDS011;50493;50.970;10.082;2022-08-07T10:11:21;1.15;;;0.73;;
64188;SDS011;50493;50.970;10.082;2022-08-07T10:14:03;2.60;;;0.85;;
64188;SDS011;50493;50.970;10.082;2022-08-07T10:16:37;1.38;;;0.82;;
64188;SDS011;50493;50.970;10.082;2022-08-07T10:19:18;1.77;;;0.70;;
64188;SDS011;50493;50.970;10.082;2022-08-07T10:21:54;0.82;;;0.80;;
64188;SDS011;50493;50.970;10.082;2022-08-07T10:24:34;0.70;;;0.70;;
64188;SDS011;50493;50.970;10.082;2022-08-07T10:27:20;1.13;;;0.80;;
64188;SDS011;50493;50.970;10.082;2022-08-07T10:29:58;0.52;;;0.50;;
64188;SDS011;50493;50.970;10.082;2022-08-07T10:32:33;1.90;;;0.75;;
64188;SDS011;50493;50.970;10.082;2022-08-07T10:35:21;0.93;;;0.85;;
64188;SDS011;50493;50.970;10.082;2022-08-07T10:37:55;0.90;;;0.70;;
64188;SDS011;50493;50.970;10.082;2022-08-07T10:40:32;0.80;;;0.80;;
64188;SDS011;50493;50.970;10.082;2022-08-07T10:43:05;1.20;;;0.60;;
64188;SDS011;50493;50.970;10.082;2022-08-07T10:45:36;1.27;;;0.65;;
64188;SDS011;50493;50.970;10.082;2022-08-07T10:48:07;0.90;;;0.80;;
64188;SDS011;50493;50.970;10.082;2022-08-07T10:50:44;1.02;;;0.93;;
64188;SDS011;50493;50.970;10.082;2022-08-07T10:53:16;0.63;;;0.63;;
64188;SDS011;50493;50.970;10.082;2022-08-07T10:55:50;1.15;;;0.70;;
64188;SDS011;50493;50.970;10.082;2022-08-07T10:58:25;1.00;;;0.95;;
64188;SDS011;50493;50.970;10.082;2022-08-07T11:01:07;1.23;;;0.75;;
64188;SDS011;50493;50.970;10.082;2022-08-07T11:03:44;0.82;;;0.60;;
64188;SDS011;50493;50.970;10.082;2022-08-07T11:06:15;1.40;;;0.70;;
64188;SDS011;50493;50.970;10.082;2022-08-07T11:08:48;1.27;;;0.80;;
64188;SDS011;50493;50.970;10.082;2022-08-07T11:11:20;1.25;;;1.00;;
64188;SDS011;50493;50.970;10.082;2022-08-07T11:13:51;1.27;;;0.90;;
64188;SDS011;50493;50.970;10.082;2022-08-07T11:16:21;1.20;;;0.80;;
64188;SDS011;50493;50.970;10.082;2022-08-07T11:18:53;1.77;;;0.80;;
64188;SDS011;50493;50.970;10.082;2022-08-07T11:21:32;1.23;;;0.70;;
64188;SDS011;50493;50.970;10.082;2022-08-07T11:26:34;1.13;;;0.80;;
64188;SDS011;50493;50.970;10.082;2022-08-07T11:29:06;1.17;;;0.70;;
64188;SDS011;50493;50.970;10.082;2022-08-07T11:31:42;0.75;;;0.70;;
64188;SDS011;50493;50.970;10.082;2022-08-07T11:34:16;1.20;;;0.80;;
64188;SDS011;50493;50.970;10.082;2022-08-07T11:36:53;0.88;;;0.70;;
64188;SDS011;50493;50.970;10.082;2022-08-07T11:39:28;1.15;;;0.90;;
64188;SDS011;50493;50.970;10.082;2022-08-07T11:42:07;2.05;;;0.68;;
64188;SDS011;50493;50.970;10.082;2022-08-07T11:44:41;1.67;;;0.75;;
64188;SDS011;50493;50.970;10.082;2022-08-07T11:47:18;1.17;;;0.90;;
64188;SDS011;50493;50.970;10.082;2022-08-07T11:49:59;0.82;;;0.80;;
64188;SDS011;50493;50.970;10.082;2022-08-07T11:52:44;1.75;;;0.63;;
64188;SDS011;50493;50.970;10.082;2022-08-07T11:55:27;0.95;;;0.85;;
64188;SDS011;50493;50.970;10.082;2022-08-07T11:58:04;1.00;;;0.80;;
64188;SDS011;50493;50.970;10.082;2022-08-07T12:00:39;1.00;;;0.80;;
64188;SDS011;50493;50.970;10.082;2022-08-07T12:03:24;1.00;;;0.60;;
64188;SDS011;50493;50.970;10.082;2022-08-07T12:06:06;1.23;;;0.60;;
64188;SDS011;50493;50.970;10.082;2022-08-07T12:08:46;2.33;;;0.80;;
64188;SDS011;50493;50.970;10.082;2022-08-07T12:11:18;1.30;;;0.75;;
64188;SDS011;50493;50.970;10.082;2022-08-07T12:13:49;0.98;;;0.75;;
64188;SDS011;50493;50.970;10.082;2022-08-07T12:16:19;0.75;;;0.75;;
64188;SDS011;50493;50.970;10.082;2022-08-07T12:18:47;0.70;;;0.70;;
64188;SDS011;50493;50.970;10.082;2022-08-07T12:21:23;0.85;;;0.80;;
64188;SDS011;50493;50.970;10.082;2022-08-07T12:23:53;0.80;;;0.80;;
64188;SDS011;50493;50.970;10.082;2022-08-07T12:26:25;0.65;;;0.60;;
64188;SDS011;50493;50.970;10.082;2022-08-07T12:28:55;0.82;;;0.82;;
64188;SDS011;50493;50.970;10.082;2022-08-07T12:31:28;0.70;;;0.65;;
64188;SDS011;50493;50.970;10.082;2022-08-07T12:33:59;0.90;;;0.80;;
64188;SDS011;50493;50.970;10.082;2022-08-07T12:36:26;1.70;;;0.70;;
64188;SDS011;50493;50.970;10.082;2022-08-07T12:38:54;1.17;;;0.70;;
64188;SDS011;50493;50.970;10.082;2022-08-07T12:41:23;1.38;;;0.70;;
64188;SDS011;50493;50.970;10.082;2022-08-07T12:43:51;1.42;;;0.88;;
64188;SDS011;50493;50.970;10.082;2022-08-07T12:46:25;1.38;;;0.60;;
64188;SDS011;50493;50.970;10.082;2022-08-07T12:49:10;1.27;;;0.68;;
64188;SDS011;50493;50.970;10.082;2022-08-07T12:51:40;1.13;;;0.63;;
64188;SDS011;50493;50.970;10.082;2022-08-07T12:54:14;0.68;;;0.68;;
64188;SDS011;50493;50.970;10.082;2022-08-07T12:56:48;1.85;;;0.77;;
64188;SDS011;50493;50.970;10.082;2022-08-07T12:59:18;1.10;;;0.70;;
64188;SDS011;50493;50.970;10.082;2022-08-07T13:01:49;0.70;;;0.70;;
64188;SDS011;50493;50.970;10.082;2022-08-07T13:04:40;0.90;;;0.75;;
64188;SDS011;50493;50.970;10.082;2022-08-07T13:07:16;0.77;;;0.77;;
64188;SDS011;50493;50.970;10.082;2022-08-07T13:15:34;0.98;;;0.80;;
64188;SDS011;50493;50.970;10.082;2022-08-07T13:18:12;0.93;;;0.70;;
64188;SDS011;50493;50.970;10.082;2022-08-07T13:20:46;1.38;;;0.82;;
64188;SDS011;50493;50.970;10.082;2022-08-07T13:23:16;2.53;;;0.63;;
64188;SDS011;50493;50.970;10.082;2022-08-07T13:25:49;2.53;;;0.70;;
64188;SDS011;50493;50.970;10.082;2022-08-07T13:28:24;2.95;;;0.70;;
64188;SDS011;50493;50.970;10.082;2022-08-07T13:30:56;0.95;;;0.70;;
64188;SDS011;50493;50.970;10.082;2022-08-07T13:33:26;0.80;;;0.80;;
64188;SDS011;50493;50.970;10.082;2022-08-07T13:35:58;1.55;;;0.70;;
64188;SDS011;50493;50.970;10.082;2022-08-07T13:38:30;0.80;;;0.70;;
64188;SDS011;50493;50.970;10.082;2022-08-07T13:41:09;0.90;;;0.60;;
64188;SDS011;50493;50.970;10.082;2022-08-07T13:43:40;1.08;;;0.70;;
64188;SDS011;50493;50.970;10.082;2022-08-07T13:46:06;0.77;;;0.70;;
64188;SDS011;50493;50.970;10.082;2022-08-07T13:48:36;0.80;;;0.80;;
64188;SDS011;50493;50.970;10.082;2022-08-07T13:51:03;1.63;;;0.90;;
64188;SDS011;50493;50.970;10.082;2022-08-07T13:53:32;6.72;;;0.90;;
64188;SDS011;50493;50.970;10.082;2022-08-07T13:56:01;1.35;;;0.70;;
64188;SDS011;50493;50.970;10.082;2022-08-07T13:58:33;1.63;;;0.80;;
64188;SDS011;50493;50.970;10.082;2022-08-07T14:01:20;0.88;;;0.68;;
64188;SDS011;50493;50.970;10.082;2022-08-07T14:03:48;0.90;;;0.90;;
64188;SDS011;50493;50.970;10.082;2022-08-07T14:06:15;0.90;;;0.80;;
64188;SDS011;50493;50.970;10.082;2022-08-07T14:08:42;1.58;;;0.80;;
64188;SDS011;50493;50.970;10.082;2022-08-07T14:11:10;1.00;;;0.77;;
64188;SDS011;50493;50.970;10.082;2022-08-07T14:13:38;1.60;;;0.80;;
64188;SDS011;50493;50.970;10.082;2022-08-07T14:16:06;1.10;;;0.80;;
64188;SDS011;50493;50.970;10.082;2022-08-07T14:18:37;1.38;;;0.70;;
64188;SDS011;50493;50.970;10.082;2022-08-07T14:21:10;2.75;;;0.80;;
64188;SDS011;50493;50.970;10.082;2022-08-07T14:23:37;1.50;;;0.80;;
64188;SDS011;50493;50.970;10.082;2022-08-07T14:26:09;2.05;;;0.70;;
64188;SDS011;50493;50.970;10.082;2022-08-07T14:28:36;3.22;;;0.80;;
64188;SDS011;50493;50.970;10.082;2022-08-07T14:31:07;0.63;;;0.63;;
64188;SDS011;50493;50.970;10.082;2022-08-07T14:33:33;1.40;;;0.70;;
64188;SDS011;50493;50.970;10.082;2022-08-07T14:36:00;0.60;;;0.60;;
64188;SDS011;50493;50.970;10.082;2022-08-07T14:38:26;0.77;;;0.70;;
64188;SDS011;50493;50.970;10.082;2022-08-07T14:40:54;0.68;;;0.68;;
64188;SDS011;50493;50.970;10.082;2022-08-07T14:43:21;0.80;;;0.80;;
64188;SDS011;50493;50.970;10.082;2022-08-07T14:45:51;0.90;;;0.73;;
64188;SDS011;50493;50.970;10.082;2022-08-07T14:48:19;0.70;;;0.70;;
64188;SDS011;50493;50.970;10.082;2022-08-07T14:50:48;1.33;;;0.77;;
64188;SDS011;50493;50.970;10.082;2022-08-07T14:53:16;1.92;;;0.95;;
64188;SDS011;50493;50.970;10.082;2022-08-07T14:55:44;0.60;;;0.60;;
64188;SDS011;50493;50.970;10.082;2022-08-07T14:58:11;1.30;;;0.60;;
64188;SDS011;50493;50.970;10.082;2022-08-07T15:00:39;0.70;;;0.63;;